Time;durP1;ratioP1;P1;durP2;ratioP2;P2;SDS_P1;SDS_P2;PMS_P1;PMS_P2;Temp;Humidity;BMP_temperature;BMP_pressure;BME280_temperature;BME280_humidity;BME280_pressure;Samples;Min_cycle;Max_cycle;Signal;HPM_P1;HPM_P2
2022/02/13 00:00:33;;;;;;;;;;;23.00;42.00;;;;;;1546138;75;774;-69
2022/02/13 00:02:35;;;;;;;;;;;23.00;42.00;;;;;;1553863;76;1126;-69
2022/02/13 00:04:36;;;;;;;;;;;23.00;42.10;;;;;;1546881;76;691;-69
2022/02/13 00:06:38;;;;;;;;;;;23.00;42.00;;;;;;1561689;76;820;-70
2022/02/13 00:08:40;;;;;;;;;;;23.00;42.00;;;;;;1544646;75;815;-71
2022/02/13 00:10:42;;;;;;;;;;;23.10;42.10;;;;;;1542572;76;1939;-68
2022/02/13 00:12:44;;;;;;;;;;;23.10;42.20;;;;;;1547070;76;804;-70
2022/02/13 00:14:46;;;;;;;;;;;23.10;42.20;;;;;;1552778;76;706;-69
2022/02/13 00:16:48;;;;;;;;;;;23.10;42.10;;;;;;1556972;76;824;-70
2022/02/13 00:18:50;;;;;;;;;;;23.00;42.00;;;;;;1546136;76;718;-69
2022/02/13 00:20:51;;;;;;;;;;;23.10;42.00;;;;;;1546781;75;1154;-69
2022/02/13 00:22:53;;;;;;;;;;;23.20;42.00;;;;;;1546140;76;783;-72
2022/02/13 00:24:55;;;;;;;;;;;23.10;42.10;;;;;;1550329;75;774;-77
2022/02/13 00:26:57;;;;;;;;;;;23.10;42.10;;;;;;1550610;76;817;-70
2022/02/13 00:28:59;;;;;;;;;;;23.00;41.90;;;;;;1545528;76;803;-69
2022/02/13 00:31:01;;;;;;;;;;;23.10;42.00;;;;;;1549246;76;1926;-69
2022/02/13 00:33:03;;;;;;;;;;;23.10;42.00;;;;;;1550610;76;781;-69
2022/02/13 00:35:05;;;;;;;;;;;23.00;41.90;;;;;;1550497;76;775;-75
2022/02/13 00:37:07;;;;;;;;;;;23.10;42.10;;;;;;1541765;76;748;-69
2022/02/13 00:39:09;;;;;;;;;;;23.10;42.00;;;;;;1541948;77;713;-68
2022/02/13 00:41:11;;;;;;;;;;;23.10;42.00;;;;;;1541907;77;1146;-70
2022/02/13 00:43:13;;;;;;;;;;;23.10;42.00;;;;;;1542086;77;713;-70
2022/02/13 00:45:15;;;;;;;;;;;23.10;42.10;;;;;;1541619;77;786;-72
2022/02/13 00:47:17;;;;;;;;;;;23.00;41.90;;;;;;1542006;77;706;-73
2022/02/13 00:49:19;;;;;;;;;;;23.00;41.90;;;;;;1542101;76;729;-70
2022/02/13 00:51:21;;;;;;;;;;;23.00;41.90;;;;;;1541915;77;1941;-70
2022/02/13 00:53:23;;;;;;;;;;;23.00;42.00;;;;;;1541940;77;722;-70
2022/02/13 00:55:25;;;;;;;;;;;23.00;42.00;;;;;;1541982;77;729;-70
2022/02/13 00:57:27;;;;;;;;;;;23.00;42.00;;;;;;1555435;76;751;-70
2022/02/13 00:59:29;;;;;;;;;;;23.00;42.00;;;;;;1548632;76;726;-69
2022/02/13 01:01:31;;;;;;;;;;;23.00;42.00;;;;;;1541937;77;1079;-70
2022/02/13 01:03:32;;;;;;;;;;;23.00;42.00;;;;;;1541860;77;707;-70
2022/02/13 01:05:34;;;;;;;;;;;23.00;42.10;;;;;;1541925;77;716;-69
2022/02/13 01:07:36;;;;;;;;;;;23.00;42.10;;;;;;1542179;76;783;-73
2022/02/13 01:09:38;;;;;;;;;;;23.00;42.10;;;;;;1541973;77;711;-73
2022/02/13 01:11:40;;;;;;;;;;;23.00;42.10;;;;;;1541947;77;1925;-70
2022/02/13 01:13:44;;;;;;;;;;;23.00;42.10;;;;;;1541966;77;719;-69
2022/02/13 01:15:45;;;;;;;;;;;23.00;42.10;;;;;;1547442;76;1649;-69
2022/02/13 01:17:47;;;;;;;;;;;23.00;42.20;;;;;;1541979;77;723;-70
2022/02/13 01:19:49;;;;;;;;;;;23.00;42.20;;;;;;1541805;76;677;-71
2022/02/13 01:21:51;;;;;;;;;;;23.10;42.40;;;;;;1542027;77;1142;-71
2022/02/13 01:23:53;;;;;;;;;;;23.10;42.40;;;;;;1541937;77;777;-70
2022/02/13 01:25:55;;;;;;;;;;;23.00;42.20;;;;;;1541854;77;777;-69
2022/02/13 01:27:57;;;;;;;;;;;23.00;42.30;;;;;;1541944;76;715;-69
2022/02/13 01:29:59;;;;;;;;;;;23.10;42.40;;;;;;1541776;77;799;-69
2022/02/13 01:32:01;;;;;;;;;;;23.10;42.60;;;;;;1541909;77;1940;-69
2022/02/13 01:34:03;;;;;;;;;;;23.00;42.30;;;;;;1542036;77;671;-69
2022/02/13 01:36:05;;;;;;;;;;;23.10;42.60;;;;;;1541816;77;711;-69
2022/02/13 01:38:07;;;;;;;;;;;23.00;42.40;;;;;;1542648;76;730;-69
2022/02/13 01:40:09;;;;;;;;;;;23.10;42.50;;;;;;1541886;77;686;-70
2022/02/13 01:42:11;;;;;;;;;;;23.00;42.40;;;;;;1541857;77;1169;-70
2022/02/13 01:44:26;;;;;;;;;;;23.00;42.50;;;;;;1541999;77;787;-70
2022/02/13 01:46:28;;;;;;;;;;;23.00;42.50;;;;;;1541215;77;1017;-70
2022/02/13 01:48:30;;;;;;;;;;;23.00;42.50;;;;;;1542021;77;728;-69
2022/02/13 01:50:32;;;;;;;;;;;23.00;42.60;;;;;;1541757;77;749;-69
2022/02/13 01:52:34;;;;;;;;;;;23.00;42.60;;;;;;1541768;77;1941;-70
2022/02/13 01:54:36;;;;;;;;;;;23.10;42.70;;;;;;1542014;77;739;-70
2022/02/13 01:56:39;;;;;;;;;;;23.00;42.60;;;;;;1541965;77;749;-69
2022/02/13 01:58:40;;;;;;;;;;;23.00;42.60;;;;;;1542234;76;789;-72
2022/02/13 02:00:42;;;;;;;;;;;23.00;42.70;;;;;;1541961;77;1137;-69
2022/02/13 02:02:44;;;;;;;;;;;23.10;42.80;;;;;;1541915;77;646;-69
2022/02/13 02:04:47;;;;;;;;;;;23.00;42.60;;;;;;1542078;77;748;-69
2022/02/13 02:06:49;;;;;;;;;;;23.00;42.60;;;;;;1541966;77;573;-70
2022/02/13 02:08:51;;;;;;;;;;;23.00;42.60;;;;;;1541893;76;719;-70
2022/02/13 02:10:53;;;;;;;;;;;23.00;42.60;;;;;;1542036;77;1951;-70
2022/02/13 02:12:55;;;;;;;;;;;23.00;42.70;;;;;;1542128;76;720;-71
2022/02/13 02:14:56;;;;;;;;;;;23.00;42.60;;;;;;1542724;76;719;-73
2022/02/13 02:16:58;;;;;;;;;;;23.00;42.70;;;;;;1559382;76;805;-75
2022/02/13 02:19:00;;;;;;;;;;;23.00;42.70;;;;;;1566727;76;736;-71
2022/02/13 02:21:04;;;;;;;;;;;23.00;42.70;;;;;;1542037;77;1123;-70
2022/02/13 02:23:05;;;;;;;;;;;23.00;42.80;;;;;;1547151;71;2111;-72
2022/02/13 02:25:08;;;;;;;;;;;23.00;42.80;;;;;;1551550;76;697;-70
2022/02/13 02:27:09;;;;;;;;;;;23.00;42.80;;;;;;1526025;78;720;-70
2022/02/13 02:29:11;;;;;;;;;;;23.00;42.80;;;;;;1527241;77;681;-71
2022/02/13 02:31:13;;;;;;;;;;;23.00;42.80;;;;;;1534013;76;1952;-71
2022/02/13 02:33:15;;;;;;;;;;;23.00;42.80;;;;;;1575493;75;1189;-71
2022/02/13 02:35:17;;;;;;;;;;;23.00;42.80;;;;;;1581034;75;795;-70
2022/02/13 02:37:19;;;;;;;;;;;23.00;42.80;;;;;;1565062;75;705;-71
2022/02/13 02:39:21;;;;;;;;;;;22.90;42.80;;;;;;1528971;78;693;-70
2022/02/13 02:41:22;;;;;;;;;;;23.00;42.80;;;;;;1515484;78;727;-69
2022/02/13 02:43:24;;;;;;;;;;;23.00;42.80;;;;;;1529015;78;1116;-70
2022/02/13 02:45:26;;;;;;;;;;;23.00;42.80;;;;;;1537975;76;662;-69
2022/02/13 02:47:28;;;;;;;;;;;23.00;42.80;;;;;;1587932;74;739;-71
2022/02/13 02:49:30;;;;;;;;;;;23.00;42.80;;;;;;1573257;74;744;-71
2022/02/13 02:51:32;;;;;;;;;;;23.00;42.80;;;;;;1602049;74;1922;-70
2022/02/13 02:53:34;;;;;;;;;;;23.00;42.80;;;;;;1581046;74;1112;-69
2022/02/13 02:55:36;;;;;;;;;;;23.00;42.80;;;;;;1580893;75;646;-70
2022/02/13 02:57:38;;;;;;;;;;;23.00;42.80;;;;;;1580011;74;788;-69
2022/02/13 02:59:40;;;;;;;;;;;23.00;42.90;;;;;;1528906;78;722;-69
2022/02/13 03:01:42;;;;;;;;;;;23.00;42.90;;;;;;1528967;78;1129;-70
2022/02/13 03:03:44;;;;;;;;;;;23.00;43.00;;;;;;1515453;78;707;-69
2022/02/13 03:05:48;;;;;;;;;;;23.00;42.90;;;;;;1540965;76;663;-69
2022/02/13 03:07:49;;;;;;;;;;;23.00;42.90;;;;;;1561469;76;1624;-72
2022/02/13 03:09:51;;;;;;;;;;;23.00;43.00;;;;;;1561646;76;740;-70
2022/02/13 03:11:53;;;;;;;;;;;23.00;43.00;;;;;;1561666;76;1942;-70
2022/02/13 03:13:55;;;;;;;;;;;23.00;43.00;;;;;;1561648;76;794;-70
2022/02/13 03:15:57;;;;;;;;;;;22.90;43.00;;;;;;1565784;74;802;-70
2022/02/13 03:17:59;;;;;;;;;;;23.00;43.00;;;;;;1554036;75;1078;-70
2022/02/13 03:20:02;;;;;;;;;;;23.00;43.00;;;;;;1531402;76;606;-70
2022/02/13 03:22:04;;;;;;;;;;;22.90;43.00;;;;;;1535753;77;1176;-70
2022/02/13 03:24:07;;;;;;;;;;;23.00;43.00;;;;;;1578256;74;749;-70
2022/02/13 03:26:09;;;;;;;;;;;22.90;43.10;;;;;;1565737;76;639;-70
2022/02/13 03:28:10;;;;;;;;;;;22.90;43.10;;;;;;1538925;75;730;-71
2022/02/13 03:30:12;;;;;;;;;;;23.00;43.00;;;;;;1534128;77;721;-71
2022/02/13 03:32:14;;;;;;;;;;;22.90;43.00;;;;;;1534061;77;1936;-71
2022/02/13 03:34:16;;;;;;;;;;;22.90;43.00;;;;;;1534056;77;726;-71
2022/02/13 03:36:19;;;;;;;;;;;23.00;43.00;;;;;;1534554;76;779;-70
2022/02/13 03:38:21;;;;;;;;;;;23.00;43.00;;;;;;1534054;77;702;-70
2022/02/13 03:40:23;;;;;;;;;;;23.00;42.90;;;;;;1534140;77;706;-71
2022/02/13 03:42:25;;;;;;;;;;;22.90;43.10;;;;;;1534700;76;1163;-71
2022/02/13 03:44:27;;;;;;;;;;;23.00;42.90;;;;;;1534091;77;771;-71
2022/02/13 03:46:29;;;;;;;;;;;22.90;42.90;;;;;;1533965;77;721;-70
2022/02/13 03:48:31;;;;;;;;;;;22.90;43.00;;;;;;1534161;77;701;-71
2022/02/13 03:50:33;;;;;;;;;;;23.00;42.90;;;;;;1534826;76;766;-72
2022/02/13 03:52:35;;;;;;;;;;;22.90;42.90;;;;;;1534066;77;1937;-71
2022/02/13 03:54:37;;;;;;;;;;;23.00;43.10;;;;;;1534165;77;718;-72
2022/02/13 03:56:39;;;;;;;;;;;23.00;43.00;;;;;;1550866;76;756;-71
2022/02/13 03:58:41;;;;;;;;;;;22.90;43.00;;;;;;1539927;76;735;-72
2022/02/13 04:00:42;;;;;;;;;;;22.90;43.00;;;;;;1553723;76;688;-73
2022/02/13 04:02:44;;;;;;;;;;;22.90;43.10;;;;;;1548270;76;1145;-72
2022/02/13 04:04:46;;;;;;;;;;;22.80;43.00;;;;;;1560383;76;716;-71
2022/02/13 04:06:48;;;;;;;;;;;23.00;43.10;;;;;;1560366;76;777;-72
2022/02/13 04:08:50;;;;;;;;;;;22.90;43.10;;;;;;1560381;76;747;-70
2022/02/13 04:10:52;;;;;;;;;;;23.00;43.10;;;;;;1536149;76;687;-70
2022/02/13 04:12:54;;;;;;;;;;;22.90;43.10;;;;;;1533977;77;1952;-71
2022/02/13 04:14:56;;;;;;;;;;;22.90;43.10;;;;;;1534066;77;726;-71
2022/02/13 04:16:58;;;;;;;;;;;23.00;43.10;;;;;;1534127;77;726;-72
2022/02/13 04:19:00;;;;;;;;;;;22.90;43.10;;;;;;1534884;76;718;-71
2022/02/13 04:21:01;;;;;;;;;;;22.90;43.10;;;;;;1534172;77;783;-71
2022/02/13 04:23:03;;;;;;;;;;;22.90;43.20;;;;;;1545860;75;1174;-72
2022/02/13 04:25:05;;;;;;;;;;;22.90;43.20;;;;;;1565755;76;601;-70
2022/02/13 04:27:07;;;;;;;;;;;23.00;43.10;;;;;;1565790;76;727;-72
2022/02/13 04:29:09;;;;;;;;;;;23.00;43.20;;;;;;1554525;76;703;-73
2022/02/13 04:31:11;;;;;;;;;;;22.90;43.10;;;;;;1535038;76;683;-72
2022/02/13 04:33:13;;;;;;;;;;;22.90;43.20;;;;;;1534051;76;1932;-72
2022/02/13 04:35:15;;;;;;;;;;;22.90;43.20;;;;;;1534014;77;714;-71
2022/02/13 04:37:16;;;;;;;;;;;22.90;43.10;;;;;;1534040;77;737;-71
2022/02/13 04:39:18;;;;;;;;;;;22.90;43.20;;;;;;1543200;76;746;-71
2022/02/13 04:41:21;;;;;;;;;;;22.90;43.20;;;;;;1560334;76;761;-72
2022/02/13 04:43:23;;;;;;;;;;;23.00;43.10;;;;;;1560368;76;1117;-72
2022/02/13 04:45:25;;;;;;;;;;;22.90;43.10;;;;;;1560371;76;712;-72
2022/02/13 04:47:27;;;;;;;;;;;22.80;43.00;;;;;;1545058;76;718;-72
2022/02/13 04:49:29;;;;;;;;;;;22.90;43.20;;;;;;1535017;76;763;-72
2022/02/13 04:51:30;;;;;;;;;;;22.90;43.20;;;;;;1534074;77;762;-71
2022/02/13 04:53:32;;;;;;;;;;;22.90;43.20;;;;;;1533999;76;1955;-72
2022/02/13 04:55:34;;;;;;;;;;;22.90;43.10;;;;;;1533964;77;732;-72
2022/02/13 04:57:36;;;;;;;;;;;22.90;43.10;;;;;;1534016;77;641;-71
2022/02/13 04:59:38;;;;;;;;;;;22.80;43.00;;;;;;1534939;76;733;-72
2022/02/13 05:01:40;;;;;;;;;;;22.90;43.10;;;;;;1534019;77;728;-71
2022/02/13 05:03:42;;;;;;;;;;;22.80;43.10;;;;;;1534037;77;793;-72
2022/02/13 05:05:43;;;;;;;;;;;22.90;43.10;;;;;;1534041;77;706;-72
2022/02/13 05:07:45;;;;;;;;;;;22.90;43.20;;;;;;1534550;76;774;-71
2022/02/13 05:09:47;;;;;;;;;;;22.80;43.00;;;;;;1534101;77;641;-71
2022/02/13 05:11:49;;;;;;;;;;;22.90;43.20;;;;;;1534090;77;1137;-72
2022/02/13 05:13:51;;;;;;;;;;;22.90;43.20;;;;;;1533989;77;1953;-72
2022/02/13 05:15:53;;;;;;;;;;;22.80;43.10;;;;;;1534607;76;741;-71
2022/02/13 05:17:55;;;;;;;;;;;22.80;43.00;;;;;;1554167;76;722;-71
2022/02/13 05:19:56;;;;;;;;;;;22.80;43.10;;;;;;1547290;76;766;-72
2022/02/13 05:21:58;;;;;;;;;;;22.80;43.20;;;;;;1534110;77;1197;-71
2022/02/13 05:24:00;;;;;;;;;;;22.80;43.20;;;;;;1560818;76;779;-71
2022/02/13 05:26:02;;;;;;;;;;;22.90;43.30;;;;;;1565808;76;715;-71
2022/02/13 05:28:04;;;;;;;;;;;22.90;43.20;;;;;;1562040;76;809;-74
2022/02/13 05:30:06;;;;;;;;;;;22.90;43.30;;;;;;1533999;77;758;-73
2022/02/13 05:32:09;;;;;;;;;;;22.90;43.30;;;;;;1533996;77;1944;-72
2022/02/13 05:34:15;;;;;;;;;;;22.90;43.30;;;;;;1533928;77;726;-71
2022/02/13 05:36:14;;;;;;;;;;;22.90;43.30;;;;;;1533217;77;1010;-72
2022/02/13 05:38:16;;;;;;;;;;;22.80;43.20;;;;;;1534793;76;753;-71
2022/02/13 05:40:18;;;;;;;;;;;22.80;43.30;;;;;;1534021;77;725;-71
2022/02/13 05:42:23;;;;;;;;;;;22.90;43.40;;;;;;1534027;76;1105;-71
2022/02/13 05:44:24;;;;;;;;;;;22.90;43.30;;;;;;1533579;77;1164;-71
2022/02/13 05:46:25;;;;;;;;;;;22.90;43.30;;;;;;1534455;76;678;-73
2022/02/13 05:48:27;;;;;;;;;;;22.90;43.30;;;;;;1534145;77;707;-71
2022/02/13 05:50:29;;;;;;;;;;;22.90;43.40;;;;;;1534840;76;730;-71
2022/02/13 05:52:31;;;;;;;;;;;22.90;43.30;;;;;;1534046;77;1940;-72
2022/02/13 05:54:33;;;;;;;;;;;22.80;43.20;;;;;;1534138;76;732;-72
2022/02/13 05:56:35;;;;;;;;;;;22.80;43.10;;;;;;1534956;76;757;-71
2022/02/13 05:58:39;;;;;;;;;;;22.80;43.10;;;;;;1534249;76;812;-70
2022/02/13 06:00:40;;;;;;;;;;;22.90;43.30;;;;;;1536621;76;1171;-71
2022/02/13 06:02:44;;;;;;;;;;;22.80;43.20;;;;;;1534440;76;1125;-73
2022/02/13 06:04:46;;;;;;;;;;;22.90;43.30;;;;;;1537225;76;776;-72
2022/02/13 06:06:49;;;;;;;;;;;22.90;43.30;;;;;;1539381;76;700;-72
2022/02/13 06:08:51;;;;;;;;;;;22.80;43.10;;;;;;1538300;76;1049;-72
2022/02/13 06:10:53;;;;;;;;;;;22.90;43.30;;;;;;1537270;76;711;-73
2022/02/13 06:12:55;;;;;;;;;;;22.90;43.30;;;;;;1533784;76;1942;-71
2022/02/13 06:14:57;;;;;;;;;;;22.80;43.20;;;;;;1535747;76;730;-71
2022/02/13 06:16:59;;;;;;;;;;;22.80;43.20;;;;;;1537107;76;676;-71
2022/02/13 06:19:01;;;;;;;;;;;22.90;43.40;;;;;;1536977;76;718;-72
2022/02/13 06:21:03;;;;;;;;;;;22.80;43.30;;;;;;1540595;76;734;-72
2022/02/13 06:23:05;;;;;;;;;;;22.80;43.30;;;;;;1541407;76;1202;-72
2022/02/13 06:25:08;;;;;;;;;;;22.80;43.30;;;;;;1541438;76;768;-72
2022/02/13 06:27:09;;;;;;;;;;;22.80;43.30;;;;;;1533920;76;738;-71
2022/02/13 06:29:11;;;;;;;;;;;22.90;43.50;;;;;;1535746;76;811;-71
2022/02/13 06:31:13;;;;;;;;;;;22.90;43.60;;;;;;1536808;76;700;-73
2022/02/13 06:33:15;;;;;;;;;;;22.90;43.50;;;;;;1533819;76;1940;-72
2022/02/13 06:35:17;;;;;;;;;;;22.90;43.40;;;;;;1542018;76;719;-73
2022/02/13 06:37:19;;;;;;;;;;;22.90;43.40;;;;;;1535382;76;735;-73
2022/02/13 06:39:21;;;;;;;;;;;22.90;43.40;;;;;;1546603;76;691;-71
2022/02/13 06:41:23;;;;;;;;;;;22.90;43.40;;;;;;1538186;76;717;-71
2022/02/13 06:43:24;;;;;;;;;;;22.90;43.40;;;;;;1534066;76;1134;-72
2022/02/13 06:45:26;;;;;;;;;;;22.90;43.40;;;;;;1535432;76;742;-71
2022/02/13 06:47:28;;;;;;;;;;;22.90;43.50;;;;;;1534025;76;764;-71
2022/02/13 06:49:30;;;;;;;;;;;22.90;43.40;;;;;;1536702;76;734;-71
2022/02/13 06:51:32;;;;;;;;;;;22.90;43.60;;;;;;1533994;76;705;-71
2022/02/13 06:53:34;;;;;;;;;;;23.00;43.60;;;;;;1536828;76;1940;-72
2022/02/13 06:55:36;;;;;;;;;;;23.00;43.50;;;;;;1541070;76;718;-72
2022/02/13 06:57:45;;;;;;;;;;;23.00;43.60;;;;;;1537305;76;747;-73
2022/02/13 06:59:47;;;;;;;;;;;22.90;43.70;;;;;;1539945;76;1076;-68
2022/02/13 07:01:49;;;;;;;;;;;23.00;44.20;;;;;;1541878;76;1135;-69
2022/02/13 07:03:50;;;;;;;;;;;23.00;43.90;;;;;;1543245;76;682;-68
2022/02/13 07:05:52;;;;;;;;;;;23.00;43.80;;;;;;1541550;76;705;-68
2022/02/13 07:07:54;;;;;;;;;;;23.00;43.60;;;;;;1539766;76;703;-69
2022/02/13 07:09:56;;;;;;;;;;;23.00;43.60;;;;;;1539026;76;815;-69
2022/02/13 07:12:04;;;;;;;;;;;23.00;43.60;;;;;;1547290;76;1143;-68
2022/02/13 07:14:01;;;;;;;;;;;23.00;43.60;;;;;;1546722;76;1931;-69
2022/02/13 07:16:03;;;;;;;;;;;22.90;43.60;;;;;;1547213;76;728;-68
2022/02/13 07:18:05;;;;;;;;;;;23.00;43.60;;;;;;1548602;76;764;-69
2022/02/13 07:20:07;;;;;;;;;;;22.90;43.60;;;;;;1551385;76;748;-69
2022/02/13 07:22:09;;;;;;;;;;;22.90;43.60;;;;;;1539490;76;1199;-68
2022/02/13 07:24:11;;;;;;;;;;;22.80;43.50;;;;;;1534272;76;798;-71
2022/02/13 07:26:13;;;;;;;;;;;22.90;43.60;;;;;;1544285;76;736;-69
2022/02/13 07:30:35;;;;;;;;;;;22.80;43.50;;;;;;1554089;76;1656;-68
2022/02/13 07:32:37;;;;;;;;;;;22.80;43.50;;;;;;1554349;76;1170;-69
2022/02/13 07:34:38;;;;;;;;;;;22.80;43.40;;;;;;1555649;76;1932;-67
2022/02/13 07:36:40;;;;;;;;;;;22.80;43.50;;;;;;1534099;76;710;-67
2022/02/13 07:38:42;;;;;;;;;;;22.80;43.50;;;;;;1535067;76;777;-67
2022/02/13 07:40:44;;;;;;;;;;;22.80;43.40;;;;;;1534192;77;741;-68
2022/02/13 07:42:46;;;;;;;;;;;22.70;43.40;;;;;;1534164;77;1147;-67
2022/02/13 07:44:49;;;;;;;;;;;22.80;43.40;;;;;;1534055;77;714;-66
2022/02/13 07:46:51;;;;;;;;;;;22.70;43.40;;;;;;1534072;77;702;-66
2022/02/13 07:48:53;;;;;;;;;;;22.70;43.40;;;;;;1535088;76;619;-65
2022/02/13 07:50:55;;;;;;;;;;;22.70;43.50;;;;;;1534781;76;693;-67
2022/02/13 07:52:57;;;;;;;;;;;22.80;43.50;;;;;;1534111;77;1928;-68
2022/02/13 07:54:59;;;;;;;;;;;22.70;43.50;;;;;;1534025;77;693;-66
2022/02/13 07:57:00;;;;;;;;;;;22.70;43.50;;;;;;1556632;76;782;-66
2022/02/13 07:59:02;;;;;;;;;;;22.80;43.60;;;;;;1551335;76;683;-67
2022/02/13 08:01:05;;;;;;;;;;;22.70;43.50;;;;;;1534081;77;777;-67
2022/02/13 08:03:06;;;;;;;;;;;22.70;43.50;;;;;;1534032;76;1178;-67
2022/02/13 08:05:08;;;;;;;;;;;22.70;43.50;;;;;;1533970;77;1029;-67
2022/02/13 08:07:10;;;;;;;;;;;22.70;43.60;;;;;;1541827;76;716;-67
2022/02/13 08:09:13;;;;;;;;;;;22.70;43.60;;;;;;1560470;76;704;-67
2022/02/13 08:11:16;;;;;;;;;;;22.60;43.50;;;;;;1560352;76;570;-67
2022/02/13 08:13:18;;;;;;;;;;;22.70;43.60;;;;;;1560301;75;1929;-67
2022/02/13 08:15:20;;;;;;;;;;;22.60;43.50;;;;;;1560420;76;739;-66
2022/02/13 08:17:23;;;;;;;;;;;22.70;43.60;;;;;;1551143;76;753;-67
2022/02/13 08:19:25;;;;;;;;;;;22.60;43.50;;;;;;1541976;76;784;-68
2022/02/13 08:21:27;;;;;;;;;;;22.60;43.50;;;;;;1542699;76;803;-67
2022/02/13 08:23:29;;;;;;;;;;;22.60;43.50;;;;;;1529985;73;2999;-76
2022/02/13 08:25:31;;;;;;;;;;;22.60;43.60;;;;;;1522201;77;752;-73
2022/02/13 08:27:32;;;;;;;;;;;22.60;43.60;;;;;;1514472;77;783;-73
2022/02/13 08:29:34;;;;;;;;;;;22.70;43.70;;;;;;1501388;77;669;-73
2022/02/13 08:31:36;;;;;;;;;;;22.60;43.60;;;;;;1505665;77;735;-73
2022/02/13 08:33:38;;;;;;;;;;;22.60;43.60;;;;;;1496797;77;1955;-72
2022/02/13 08:35:40;;;;;;;;;;;22.60;43.60;;;;;;1498284;78;718;-70
2022/02/13 08:37:42;;;;;;;;;;;22.60;43.60;;;;;;1477419;78;666;-73
2022/02/13 08:39:44;;;;;;;;;;;22.60;43.60;;;;;;1476573;78;791;-73
2022/02/13 08:41:46;;;;;;;;;;;22.60;43.70;;;;;;1483554;78;713;-71
2022/02/13 08:43:49;;;;;;;;;;;22.60;43.70;;;;;;1490271;78;1135;-71
2022/02/13 08:45:51;;;;;;;;;;;22.60;43.70;;;;;;1490737;78;738;-72
2022/02/13 08:47:53;;;;;;;;;;;22.60;43.70;;;;;;1497207;78;777;-72
2022/02/13 08:49:55;;;;;;;;;;;22.60;43.70;;;;;;1490668;78;746;-74
2022/02/13 08:51:56;;;;;;;;;;;22.60;43.70;;;;;;1488798;78;768;-73
2022/02/13 08:53:58;;;;;;;;;;;22.60;43.70;;;;;;1490876;78;1940;-70
2022/02/13 08:56:00;;;;;;;;;;;22.70;43.90;;;;;;1494153;78;801;-69
2022/02/13 08:58:02;;;;;;;;;;;22.60;43.90;;;;;;1493269;78;796;-67
2022/02/13 09:00:06;;;;;;;;;;;22.60;44.00;;;;;;1505637;78;825;-66
2022/02/13 09:02:07;;;;;;;;;;;22.70;44.10;;;;;;1489329;78;1160;-70
2022/02/13 09:04:11;;;;;;;;;;;22.70;44.20;;;;;;1487168;80;821;-70
2022/02/13 09:06:13;;;;;;;;;;;22.70;43.80;;;;;;1504959;78;833;-70
2022/02/13 09:08:14;;;;;;;;;;;22.60;42.90;;;;;;1493120;78;752;-70
2022/02/13 09:10:16;;;;;;;;;;;22.70;42.20;;;;;;1496131;78;788;-78
2022/02/13 09:12:19;;;;;;;;;;;22.70;41.20;;;;;;1515732;77;1192;-68
2022/02/13 09:14:21;;;;;;;;;;;22.60;40.50;;;;;;1494470;78;1926;-68
2022/02/13 09:16:23;;;;;;;;;;;22.60;39.30;;;;;;1508256;78;738;-76
2022/02/13 09:18:25;;;;;;;;;;;22.60;39.00;;;;;;1520196;78;713;-69
2022/02/13 09:20:27;;;;;;;;;;;22.60;39.30;;;;;;1499921;78;573;-75
2022/02/13 09:22:29;;;;;;;;;;;22.60;38.60;;;;;;1486734;78;1147;-69
2022/02/13 09:24:31;;;;;;;;;;;22.50;37.70;;;;;;1499706;78;817;-69
2022/02/13 09:26:35;;;;;;;;;;;22.60;38.40;;;;;;1520075;77;694;-69
2022/02/13 09:28:37;;;;;;;;;;;22.50;38.60;;;;;;1513668;77;1482;-69
2022/02/13 09:30:39;;;;;;;;;;;22.50;38.70;;;;;;1495609;79;738;-69
2022/02/13 09:32:41;;;;;;;;;;;22.60;38.80;;;;;;1495652;78;1154;-69
2022/02/13 09:34:43;;;;;;;;;;;22.60;38.90;;;;;;1495390;79;1914;-71
2022/02/13 09:36:48;;;;;;;;;;;22.60;38.70;;;;;;1495047;79;733;-69
2022/02/13 09:38:50;;;;;;;;;;;22.60;38.70;;;;;;1495642;79;788;-69
2022/02/13 09:40:52;;;;;;;;;;;22.60;38.60;;;;;;1495436;79;598;-69
2022/02/13 09:42:54;;;;;;;;;;;22.60;38.60;;;;;;1495690;78;1150;-69
2022/02/13 09:44:56;;;;;;;;;;;22.70;38.60;;;;;;1494995;79;654;-69
2022/02/13 09:46:58;;;;;;;;;;;22.70;38.60;;;;;;1495606;79;734;-71
2022/02/13 09:49:00;;;;;;;;;;;22.60;38.50;;;;;;1495205;79;723;-69
2022/02/13 09:51:02;;;;;;;;;;;22.70;38.50;;;;;;1471353;81;743;-69
2022/02/13 09:53:07;;;;;;;;;;;22.70;38.50;;;;;;1471400;79;1136;-70
2022/02/13 09:55:09;;;;;;;;;;;22.70;38.30;;;;;;1471292;81;1921;-69
2022/02/13 09:59:31;;;;;;;;;;;22.70;38.30;;;;;;1494192;79;1642;-69
2022/02/13 10:01:39;;;;;;;;;;;22.70;38.20;;;;;;1479363;79;846;-70
2022/02/13 10:03:42;;;;;;;;;;;22.70;38.10;;;;;;1478577;78;1054;-68
2022/02/13 10:05:44;;;;;;;;;;;22.70;38.10;;;;;;1504350;77;733;-69
2022/02/13 10:07:46;;;;;;;;;;;22.70;38.00;;;;;;1527800;77;856;-68
2022/02/13 10:09:48;;;;;;;;;;;22.70;37.90;;;;;;1523231;76;1180;-69
2022/02/13 10:11:50;;;;;;;;;;;22.80;37.80;;;;;;1524517;77;810;-69
2022/02/13 10:13:55;;;;;;;;;;;22.70;37.80;;;;;;1526367;76;1954;-69
2022/02/13 10:15:57;;;;;;;;;;;22.80;37.60;;;;;;1562282;75;697;-69
2022/02/13 10:18:05;;;;;;;;;;;22.70;37.60;;;;;;1551792;75;758;-70
2022/02/13 10:20:08;;;;;;;;;;;22.80;37.60;;;;;;1549672;75;878;-69
2022/02/13 10:22:10;;;;;;;;;;;22.80;37.50;;;;;;1551054;75;1147;-68
2022/02/13 10:24:13;;;;;;;;;;;22.80;37.50;;;;;;1553615;75;827;-69
2022/02/13 10:26:21;;;;;;;;;;;22.80;37.30;;;;;;1551368;75;740;-69
2022/02/13 10:28:23;;;;;;;;;;;22.80;37.20;;;;;;1552021;75;805;-69
2022/02/13 10:30:35;;;;;;;;;;;22.80;37.30;;;;;;1556004;75;674;-69
2022/02/13 10:32:39;;;;;;;;;;;22.80;37.30;;;;;;1548971;75;1148;-69
2022/02/13 10:34:43;;;;;;;;;;;22.80;37.20;;;;;;1547140;75;1905;-69
2022/02/13 10:36:45;;;;;;;;;;;22.80;37.10;;;;;;1539774;75;2216;-72
2022/02/13 10:38:47;;;;;;;;;;;22.80;37.10;;;;;;1557284;75;735;-70
2022/02/13 10:40:49;;;;;;;;;;;22.80;37.00;;;;;;1537878;75;723;-69
2022/02/13 10:43:04;;;;;;;;;;;22.80;37.00;;;;;;1546272;75;1136;-68
2022/02/13 10:45:16;;;;;;;;;;;22.80;37.00;;;;;;1543074;75;727;-65
2022/02/13 10:47:26;;;;;;;;;;;22.80;36.90;;;;;;1549727;75;1864;-68
2022/02/13 10:49:27;;;;;;;;;;;22.80;36.80;;;;;;1552962;75;694;-70
2022/02/13 10:51:29;;;;;;;;;;;22.80;36.80;;;;;;1549940;75;776;-68
2022/02/13 10:53:31;;;;;;;;;;;22.80;36.80;;;;;;1541634;75;1159;-68
2022/02/13 10:55:34;;;;;;;;;;;22.80;36.80;;;;;;1546665;75;1931;-68
2022/02/13 10:57:37;;;;;;;;;;;22.80;36.70;;;;;;1553285;75;729;-68
2022/02/13 10:59:39;;;;;;;;;;;22.80;36.70;;;;;;1554881;75;752;-68
2022/02/13 11:01:41;;;;;;;;;;;22.80;36.60;;;;;;1551465;76;774;-68
2022/02/13 11:03:48;;;;;;;;;;;22.80;36.60;;;;;;1560376;76;1091;-67
2022/02/13 11:05:48;;;;;;;;;;;22.70;36.60;;;;;;1557513;75;1613;-68
2022/02/13 11:07:50;;;;;;;;;;;22.80;36.50;;;;;;1552767;76;690;-68
2022/02/13 11:09:52;;;;;;;;;;;22.80;36.50;;;;;;1552742;76;851;-68
2022/02/13 11:11:57;;;;;;;;;;;22.80;36.50;;;;;;1552764;76;728;-68
2022/02/13 11:13:59;;;;;;;;;;;22.80;36.40;;;;;;1547286;75;1117;-67
2022/02/13 11:16:01;;;;;;;;;;;22.70;36.30;;;;;;1539809;75;1944;-70
2022/02/13 11:18:05;;;;;;;;;;;22.80;36.10;;;;;;1541488;75;865;-69
2022/02/13 11:20:07;;;;;;;;;;;22.80;35.80;;;;;;1549842;75;1084;-66
2022/02/13 11:22:09;;;;;;;;;;;22.70;35.40;;;;;;1519185;76;1138;-68
2022/02/13 11:24:24;;;;;;;;;;;22.70;35.40;;;;;;1564511;75;1234;-69
2022/02/13 11:26:36;;;;;;;;;;;22.60;35.00;;;;;;1554785;75;1835;-69
2022/02/13 11:28:45;;;;;;;;;;;22.60;35.00;;;;;;1554874;75;779;-69
2022/02/13 11:30:49;;;;;;;;;;;22.60;34.80;;;;;;1576808;75;786;-68
2022/02/13 11:32:52;;;;;;;;;;;22.60;34.40;;;;;;1545656;75;1156;-68
2022/02/13 11:34:54;;;;;;;;;;;22.60;34.30;;;;;;1553166;75;1907;-68
2022/02/13 11:37:14;;;;;;;;;;;22.50;34.00;;;;;;1553261;75;911;-68
2022/02/13 11:39:33;;;;;;;;;;;22.50;33.90;;;;;;1549970;75;1519;-68
2022/02/13 11:41:48;;;;;;;;;;;22.50;33.50;;;;;;1553326;75;662;-68
2022/02/13 11:43:54;;;;;;;;;;;22.40;33.90;;;;;;1553291;75;1193;-68
2022/02/13 11:45:55;;;;;;;;;;;22.40;33.70;;;;;;1552823;75;2004;-66
2022/02/13 11:47:57;;;;;;;;;;;22.40;33.60;;;;;;1553314;75;740;-69
2022/02/13 11:50:15;;;;;;;;;;;22.30;33.50;;;;;;1555535;75;732;-68
2022/02/13 11:52:27;;;;;;;;;;;22.40;33.60;;;;;;1558137;75;1643;-69
2022/02/13 11:54:44;;;;;;;;;;;22.30;33.40;;;;;;1569263;75;1898;-68
2022/02/13 11:56:43;;;;;;;;;;;22.30;33.50;;;;;;1562343;75;1708;-69
2022/02/13 11:58:45;;;;;;;;;;;22.30;33.60;;;;;;1552705;75;1140;-68
2022/02/13 12:00:48;;;;;;;;;;;22.20;33.60;;;;;;1552425;75;794;-68
2022/02/13 12:02:50;;;;;;;;;;;22.30;33.80;;;;;;1551764;75;1152;-68
2022/02/13 12:05:05;;;;;;;;;;;22.20;33.10;;;;;;1551538;75;707;-63
2022/02/13 12:07:07;;;;;;;;;;;22.20;33.10;;;;;;1556778;75;756;-69
2022/02/13 12:09:10;;;;;;;;;;;22.30;33.10;;;;;;1552387;76;696;-68
2022/02/13 12:11:12;;;;;;;;;;;22.20;33.30;;;;;;1552532;76;661;-68
2022/02/13 12:13:15;;;;;;;;;;;22.30;33.40;;;;;;1552656;75;1171;-69
2022/02/13 12:15:17;;;;;;;;;;;22.20;32.90;;;;;;1552615;76;1939;-70